Sunday, June 26, 2016
20:50 UTC
  |  Log In   |  Register Free
Airport Search:

Page Field Airport
(KFMY)

FAA data valid effective May 26 2016 - Jul 21 2016 (unless otherwise noted).

 
 
 
 
 
 
 
 
 
 
 
 
 
 
Current Aviation Weather for KFMY

Weather Summary


The most recent METAR observation for FMY was updated at: 12:53 UTC
METAR for KFMY is not available. Closest METAR is for KRSW
KFMY  (most recent observation was updatred at 26:19 UTC)
261953Z 29009KT 10SM SCT047 OVC055 32/23 A3004 RMK AO2 LTG DSNT S SLP174 T03220233

KRSW  (6.5 nm NW)   (most recent observation was updated at 26:19 UTC)
261953Z 00000KT 10SM CLR 34/21 A3004 RMK AO2 LTG DSNT S SLP171 T03440211

KPGD  (21.1 nm SE)   (most recent observation was updated at 26:19 UTC)
261953Z AUTO 30007KT 10SM CLR 32/22 A3006 RMK AO2 LTG DSNT N SLP180 T03170222

TAF for KFMY is not available.
KFMY
261720Z 2618/2718 30008KT P6SM VCTS BKN040CB BKN150 FM270200 10007KT P6SM FEW100 SCT250 FM270500 VRB03KT P6SM SCT250 FM271500 03006KT P6SM SCT030 SCT100

KRSW  (6.5 nm NW)   (most recent observation was updatred at 26:20 UTC)
AMD 262006Z 2620/2718 06008KT P6SM VCTS BKN040CB BKN150 TEMPO 2620/2621 4SM TSRA BKN030CB FM270100 09007KT P6SM FEW100 SCT250 FM270400 VRB03KT P6SM SCT250 FM271500 03006KT P6SM SCT030 SCT100


KPGD  (21.1 nm SE)   (most recent observation was updatred at 26:17 UTC)
261720Z 2618/2718 29006KT P6SM VCTS BKN040CB BKN150 FM270200 08009KT P6SM FEW100 SCT250 FM270500 VRB03KT P6SM SCT250 FM271500 25008KT P6SM SCT030 SCT100
GlobalAir.com is loading additional information.
 Current Weather at FMY
93.0 F° (33.9 C°)

North winds at 0.0 mph
Pressure:
30.05 in
Humidity:
49%
Wind:
North at 0.0 mph
Dew Point:
71.1 F° (21.7 C°)
Visibility:
10.00 mi
FMY NOAA Radar




Find All Airport Services Find A Hotel Find A Rental Car Find A Golf Course Find A Restaurant $100 Hamburger



Airport Weather Forecast for KFMY

Translated METAR for KFMY (1953 UTC)
METAR:
KFMY 261953Z 29009KT 10SM SCT047 OVC055 32/23 A3004 RMK AO2 LTG DSNT S SLP174 T03220233
Conditions at:
KFMY (Page Field, FL) observed 1953 UTC 26 June 2016
Temperature:
32°C (89.6°F)
Dewpoint:
23°C (73.4°F) [RH = 59]
Pressure:
30.04 inches Hg (1017.3 mb)
pressure at sea level is 174 in Hg
Winds:
from the WNW (290 degrees) at 10.4 mph (9 knots: 4.6 m/s)
Visibility:
10 mile(s)
Ceiling:
5,500 feet AGL
Clouds:
Scattered Clouds at 4,700 feet AGL
Overcast Skies at 5,500 feet AGL
Remarks:
site is automated and HAS a precipitation sensor

FBO's on the Field
FBO Company Facility Photos Services Transportation Aviation Fuel Prices: Prices include tax
Catering Weather Repair Courtesy Rental Type 100LL JetA JetA+ MOGAS 8087
 
Base Operations at Page Field

Currently rated 5 by 2 people
FS:Avfuel
Last Updated: Jun-17
Login to update fuel prices
SS:
Contact Base Operations at Page FieldMore FBO Information
 
Add another FBO Facility Photos Catering Weather Repair Courtesy Rental Type 100LL JetA JetA+ MOGAS 8087
Services Transportation Aviation Fuel Prices: Prices include tax


model-print
model-print
model-print
model-print